createdAt,value
2018-07-24T00:00:38.070Z,0
2018-07-24T00:01:39.376Z,0
2018-07-24T00:02:40.700Z,0
2018-07-24T00:03:42.017Z,0
2018-07-24T00:04:43.352Z,0
2018-07-24T00:05:44.663Z,0
2018-07-24T00:06:45.983Z,0
2018-07-24T00:07:47.300Z,0
2018-07-24T00:08:48.606Z,0
2018-07-24T00:09:49.921Z,0
2018-07-24T00:10:51.247Z,0
2018-07-24T00:11:53.892Z,0
2018-07-24T00:12:55.213Z,0
2018-07-24T00:13:56.524Z,0
2018-07-24T00:14:57.835Z,0
2018-07-24T00:15:59.151Z,0
2018-07-24T00:17:00.482Z,0
2018-07-24T00:18:01.795Z,0
2018-07-24T00:19:03.121Z,0
2018-07-24T00:20:04.436Z,0
2018-07-24T00:21:05.752Z,0
2018-07-24T00:22:07.080Z,0
2018-07-24T00:23:08.406Z,0
2018-07-24T00:24:09.718Z,0
2018-07-24T00:25:11.033Z,0
2018-07-24T00:26:12.468Z,0
2018-07-24T00:27:13.795Z,0
2018-07-24T00:28:15.105Z,0
2018-07-24T00:29:16.426Z,0
2018-07-24T00:30:17.748Z,0
2018-07-24T00:31:19.060Z,0
2018-07-24T00:32:20.376Z,0
2018-07-24T00:33:21.688Z,0
2018-07-24T00:34:22.997Z,0
2018-07-24T00:35:24.321Z,0
2018-07-24T00:36:25.636Z,0
2018-07-24T00:37:26.953Z,0
2018-07-24T00:38:28.265Z,0
2018-07-24T00:39:29.575Z,0
2018-07-24T00:40:30.887Z,0
2018-07-24T00:41:32.231Z,0
2018-07-24T00:42:33.542Z,0
2018-07-24T00:43:34.852Z,0
2018-07-24T00:44:36.175Z,0
2018-07-24T00:45:37.491Z,0
2018-07-24T00:46:38.802Z,0
2018-07-24T00:47:40.128Z,0
2018-07-24T00:48:41.421Z,0
2018-07-24T00:49:42.738Z,0
2018-07-24T00:50:44.046Z,0
2018-07-24T00:51:45.360Z,0
2018-07-24T00:52:46.681Z,0
2018-07-24T00:53:47.998Z,0
2018-07-24T00:54:49.308Z,0
2018-07-24T00:55:50.651Z,0
2018-07-24T00:56:51.956Z,0
2018-07-24T00:57:53.263Z,0
2018-07-24T00:58:54.578Z,0
2018-07-24T00:59:55.902Z,0
2018-07-24T01:00:57.224Z,0
2018-07-24T01:01:58.532Z,0
2018-07-24T01:02:59.851Z,0
2018-07-24T01:04:01.170Z,0
2018-07-24T01:05:02.478Z,0
2018-07-24T01:06:03.788Z,0
2018-07-24T01:07:05.102Z,0
2018-07-24T01:08:06.425Z,0
2018-07-24T01:09:07.725Z,0
2018-07-24T01:10:09.039Z,0
2018-07-24T01:11:10.368Z,0
2018-07-24T01:12:11.678Z,0
2018-07-24T01:13:12.997Z,0
2018-07-24T01:14:14.304Z,0
2018-07-24T01:15:15.626Z,0
2018-07-24T01:16:16.946Z,0
2018-07-24T01:17:18.264Z,0
2018-07-24T01:18:19.569Z,0
2018-07-24T01:19:20.902Z,0
2018-07-24T01:20:22.210Z,0
2018-07-24T01:21:23.527Z,0
2018-07-24T01:22:24.836Z,0
2018-07-24T01:23:26.146Z,0
2018-07-24T01:24:27.473Z,0
2018-07-24T01:25:28.771Z,0
2018-07-24T01:26:30.099Z,0
2018-07-24T01:27:31.412Z,0
2018-07-24T01:28:32.712Z,0
2018-07-24T01:29:34.028Z,0
2018-07-24T01:30:35.346Z,0
2018-07-24T01:31:36.838Z,0
2018-07-24T01:32:38.152Z,0
2018-07-24T01:33:39.468Z,0
2018-07-24T01:34:40.773Z,0
2018-07-24T01:35:42.094Z,0
2018-07-24T01:36:44.256Z,0
2018-07-24T01:37:45.577Z,0
2018-07-24T01:38:46.891Z,0
2018-07-24T01:39:48.219Z,0
2018-07-24T01:40:49.523Z,0
2018-07-24T01:41:50.842Z,0
2018-07-24T01:42:52.161Z,0
2018-07-24T01:43:53.477Z,0
2018-07-24T01:44:54.797Z,0
2018-07-24T01:45:56.107Z,0
2018-07-24T01:46:57.417Z,0
2018-07-24T01:47:58.731Z,0
2018-07-24T01:49:00.054Z,0
2018-07-24T01:50:01.368Z,0
2018-07-24T01:51:02.678Z,0
2018-07-24T01:52:03.986Z,0
2018-07-24T01:53:05.291Z,0
2018-07-24T01:54:06.607Z,0
2018-07-24T01:55:07.932Z,0
2018-07-24T01:56:09.239Z,0
2018-07-24T01:57:10.568Z,0
2018-07-24T01:58:11.864Z,0
2018-07-24T01:59:13.191Z,0
2018-07-24T02:00:14.502Z,0
2018-07-24T02:01:15.821Z,0
2018-07-24T02:02:17.136Z,0
2018-07-24T02:03:18.461Z,0
2018-07-24T02:04:19.772Z,0
2018-07-24T02:05:21.081Z,0
2018-07-24T02:06:22.402Z,0
2018-07-24T02:07:23.709Z,0
2018-07-24T02:08:25.014Z,0
2018-07-24T02:09:26.319Z,0
2018-07-24T02:10:27.637Z,0
2018-07-24T02:11:28.939Z,0
2018-07-24T02:12:30.257Z,0
2018-07-24T02:13:31.579Z,0
2018-07-24T02:14:32.897Z,0
2018-07-24T02:15:34.199Z,0
2018-07-24T02:16:35.513Z,0
2018-07-24T02:17:36.818Z,0
2018-07-24T02:18:38.140Z,0
2018-07-24T02:19:39.449Z,0
2018-07-24T02:20:40.763Z,0
2018-07-24T02:21:42.074Z,0
2018-07-24T02:22:43.404Z,0
2018-07-24T02:23:44.724Z,0
2018-07-24T02:24:46.042Z,0
2018-07-24T02:25:47.363Z,0
2018-07-24T02:26:48.682Z,0
2018-07-24T02:27:49.988Z,0
2018-07-24T02:28:51.298Z,0
2018-07-24T02:29:52.608Z,0
2018-07-24T02:30:53.920Z,0
2018-07-24T02:31:55.282Z,0
2018-07-24T02:32:56.543Z,0
2018-07-24T02:33:57.874Z,0
2018-07-24T02:34:59.184Z,0
2018-07-24T02:36:00.500Z,0
2018-07-24T02:37:01.810Z,0
2018-07-24T02:38:03.125Z,0
2018-07-24T02:39:04.431Z,0
2018-07-24T02:40:05.769Z,0
2018-07-24T02:41:07.059Z,0
2018-07-24T02:42:08.370Z,0
2018-07-24T02:43:09.689Z,0
2018-07-24T02:44:11.009Z,0
2018-07-24T02:45:12.338Z,0
2018-07-24T02:46:13.644Z,0
2018-07-24T02:47:14.951Z,0
2018-07-24T02:48:16.266Z,0
2018-07-24T02:49:17.574Z,0
2018-07-24T02:50:18.899Z,0
2018-07-24T02:51:20.218Z,0
2018-07-24T02:52:21.528Z,0
2018-07-24T02:53:22.839Z,0
2018-07-24T02:54:24.158Z,0
2018-07-24T02:55:25.489Z,0
2018-07-24T02:56:26.788Z,0
2018-07-24T02:57:28.096Z,0
2018-07-24T02:58:29.411Z,0
2018-07-24T02:59:30.724Z,0
2018-07-24T03:00:32.044Z,0
2018-07-24T03:01:33.358Z,0
2018-07-24T03:02:34.669Z,0
2018-07-24T03:03:35.976Z,0
2018-07-24T03:04:37.294Z,0
2018-07-24T03:05:38.590Z,0
2018-07-24T03:06:39.913Z,0
2018-07-24T03:07:41.223Z,0
2018-07-24T03:08:42.593Z,0
2018-07-24T03:09:43.899Z,0
2018-07-24T03:10:45.218Z,0
2018-07-24T03:11:46.540Z,0
2018-07-24T03:12:47.859Z,0
2018-07-24T03:13:49.169Z,0
2018-07-24T03:14:50.485Z,0
2018-07-24T03:15:51.801Z,0
2018-07-24T03:16:53.105Z,0
2018-07-24T03:17:54.429Z,0
2018-07-24T03:18:55.730Z,0
2018-07-24T03:19:57.055Z,0
2018-07-24T03:20:58.361Z,0
2018-07-24T03:21:59.687Z,0
2018-07-24T03:23:01.000Z,0
2018-07-24T03:24:02.309Z,0
2018-07-24T03:25:03.620Z,0
2018-07-24T03:26:04.937Z,0
2018-07-24T03:27:06.249Z,0
2018-07-24T03:28:07.561Z,0
2018-07-24T03:29:08.867Z,0
2018-07-24T03:30:10.184Z,0
2018-07-24T03:31:11.498Z,0
2018-07-24T03:32:12.820Z,0
2018-07-24T03:33:14.125Z,0
2018-07-24T03:34:15.430Z,5
2018-07-24T03:35:16.770Z,5
2018-07-24T03:36:18.085Z,5
2018-07-24T03:37:19.391Z,5
2018-07-24T03:38:20.705Z,5
2018-07-24T03:39:22.021Z,5
2018-07-24T03:40:23.343Z,5
2018-07-24T03:41:24.661Z,11
2018-07-24T03:42:26.009Z,11
2018-07-24T03:43:27.324Z,11
2018-07-24T03:44:28.683Z,11
2018-07-24T03:45:30.009Z,16
2018-07-24T03:46:31.325Z,16
2018-07-24T03:47:32.644Z,16
2018-07-24T03:48:33.963Z,16
2018-07-24T03:49:35.275Z,22
2018-07-24T03:50:36.616Z,22
2018-07-24T03:51:37.936Z,22
2018-07-24T03:52:39.306Z,22
2018-07-24T03:53:40.616Z,28
2018-07-24T03:54:41.963Z,28
2018-07-24T03:55:43.308Z,33
2018-07-24T03:56:44.665Z,33
2018-07-24T03:57:45.985Z,33
2018-07-24T03:58:47.334Z,39
2018-07-24T03:59:48.653Z,39
2018-07-24T04:00:50.105Z,45
2018-07-24T04:01:51.420Z,45
2018-07-24T04:02:52.781Z,45
2018-07-24T04:03:54.097Z,50
2018-07-24T04:04:55.459Z,50
2018-07-24T04:05:56.766Z,56
2018-07-24T04:06:58.114Z,56
2018-07-24T04:07:59.434Z,61
2018-07-24T04:09:00.851Z,61
2018-07-24T04:10:02.156Z,67
2018-07-24T04:11:03.531Z,67
2018-07-24T04:12:04.843Z,73
2018-07-24T04:13:06.175Z,73
2018-07-24T04:14:07.501Z,78
2018-07-24T04:15:08.848Z,78
2018-07-24T04:16:10.159Z,84
2018-07-24T04:17:11.482Z,84
2018-07-24T04:18:12.801Z,90
2018-07-24T04:19:14.105Z,90
2018-07-24T04:20:15.425Z,95
2018-07-24T04:21:16.751Z,101
2018-07-24T04:22:18.068Z,101
2018-07-24T04:23:19.395Z,106
2018-07-24T04:24:20.708Z,106
2018-07-24T04:25:22.026Z,112
2018-07-24T04:26:23.347Z,112
2018-07-24T04:27:24.664Z,118
2018-07-24T04:28:25.980Z,123
2018-07-24T04:29:27.306Z,123
2018-07-24T04:30:28.624Z,129
2018-07-24T04:31:29.930Z,129
2018-07-24T04:32:31.251Z,135
2018-07-24T04:33:32.569Z,135
2018-07-24T04:34:33.890Z,140
2018-07-24T04:35:35.211Z,146
2018-07-24T04:36:36.514Z,146
2018-07-24T04:37:37.960Z,151
2018-07-24T04:38:39.292Z,157
2018-07-24T04:39:40.599Z,157
2018-07-24T04:40:41.918Z,163
2018-07-24T04:41:44.213Z,163
2018-07-24T04:42:45.520Z,168
2018-07-24T04:43:46.860Z,174
2018-07-24T04:44:48.203Z,174
2018-07-24T04:45:49.513Z,180
2018-07-24T04:46:50.821Z,185
2018-07-24T04:47:52.137Z,185
2018-07-24T04:48:53.460Z,191
2018-07-24T04:49:54.781Z,191
2018-07-24T04:50:56.118Z,196
2018-07-24T04:51:57.435Z,196
2018-07-24T04:52:58.755Z,202
2018-07-24T04:54:00.075Z,208
2018-07-24T04:55:01.393Z,208
2018-07-24T04:56:02.710Z,213
2018-07-24T04:57:04.033Z,213
2018-07-24T04:58:05.363Z,219
2018-07-24T04:59:06.675Z,219
2018-07-24T05:00:07.982Z,225
2018-07-24T05:01:09.311Z,225
2018-07-24T05:02:10.625Z,230
2018-07-24T05:03:11.957Z,236
2018-07-24T05:04:13.274Z,236
2018-07-24T05:05:14.592Z,241
2018-07-24T05:06:15.906Z,241
2018-07-24T05:07:17.225Z,247
2018-07-24T05:08:18.536Z,247
2018-07-24T05:09:19.865Z,253
2018-07-24T05:10:21.222Z,253
2018-07-24T05:11:22.513Z,258
2018-07-24T05:12:23.827Z,258
2018-07-24T05:13:25.151Z,264
2018-07-24T05:14:26.466Z,270
2018-07-24T05:15:27.796Z,270
2018-07-24T05:16:29.112Z,275
2018-07-24T05:17:30.436Z,275
2018-07-24T05:18:31.766Z,275
2018-07-24T05:19:33.077Z,281
2018-07-24T05:20:34.395Z,281
2018-07-24T05:21:35.718Z,286
2018-07-24T05:22:37.036Z,286
2018-07-24T05:23:38.367Z,292
2018-07-24T05:24:39.711Z,292
2018-07-24T05:25:41.004Z,298
2018-07-24T05:26:42.335Z,298
2018-07-24T05:27:43.637Z,303
2018-07-24T05:28:44.968Z,309
2018-07-24T05:29:46.282Z,309
2018-07-24T05:30:47.597Z,315
2018-07-24T05:31:48.912Z,315
2018-07-24T05:32:50.239Z,320
2018-07-24T05:33:51.558Z,326
2018-07-24T05:34:52.883Z,326
2018-07-24T05:35:54.210Z,331
2018-07-24T05:36:55.520Z,331
2018-07-24T05:37:56.846Z,337
2018-07-24T05:38:58.168Z,343
2018-07-24T05:39:59.477Z,343
2018-07-24T05:41:00.792Z,348
2018-07-24T05:42:02.148Z,348
2018-07-24T05:43:03.471Z,348
2018-07-24T05:44:04.781Z,354
2018-07-24T05:45:06.107Z,354
2018-07-24T05:46:07.437Z,360
2018-07-24T05:47:08.746Z,360
2018-07-24T05:48:10.081Z,365
2018-07-24T05:49:11.412Z,365
2018-07-24T05:50:12.751Z,371
2018-07-24T05:51:14.092Z,371
2018-07-24T05:52:15.415Z,388
2018-07-24T05:53:16.728Z,545
2018-07-24T05:54:18.042Z,753
2018-07-24T05:55:19.373Z,759
2018-07-24T05:56:20.688Z,652
2018-07-24T05:57:22.033Z,613
2018-07-24T05:58:23.386Z,601
2018-07-24T05:59:24.685Z,590
2018-07-24T06:00:26.007Z,573
2018-07-24T06:01:27.322Z,568
2018-07-24T06:02:28.650Z,585
2018-07-24T06:03:29.973Z,680
2018-07-24T06:04:31.295Z,804
2018-07-24T06:05:32.626Z,871
2018-07-24T06:06:33.938Z,888
2018-07-24T06:07:35.267Z,916
2018-07-24T06:08:36.592Z,978
2018-07-24T06:09:37.921Z,1001
2018-07-24T06:10:39.232Z,1018
2018-07-24T06:11:40.701Z,1046
2018-07-24T06:12:42.024Z,1068
2018-07-24T06:13:43.361Z,1068
2018-07-24T06:14:44.742Z,1074
2018-07-24T06:15:46.074Z,1091
2018-07-24T06:16:47.472Z,1102
2018-07-24T06:17:51.638Z,1096
2018-07-24T06:18:57.262Z,1130
2018-07-24T06:20:00.567Z,1119
2018-07-24T06:21:01.176Z,1147
2018-07-24T06:22:03.474Z,1147
2018-07-24T06:23:11.814Z,1147
2018-07-24T06:24:20.328Z,1158
2018-07-24T06:25:29.607Z,1209
